sensor_id;sensor_type;location;lat;lon;timestamp;temperature;humidity
13982;DHT22;7065;50.880;5.502;2023-04-15T00:02:14;5.60;99.90
13982;DHT22;7065;50.880;5.502;2023-04-15T00:04:40;5.70;99.90
13982;DHT22;7065;50.880;5.502;2023-04-15T00:07:06;5.70;99.90
13982;DHT22;7065;50.880;5.502;2023-04-15T00:09:33;5.70;99.90
13982;DHT22;7065;50.880;5.502;2023-04-15T00:11:58;5.70;99.90
13982;DHT22;7065;50.880;5.502;2023-04-15T00:14:24;5.70;99.90
13982;DHT22;7065;50.880;5.502;2023-04-15T00:16:50;5.70;99.90
13982;DHT22;7065;50.880;5.502;2023-04-15T00:19:20;5.70;99.90
13982;DHT22;7065;50.880;5.502;2023-04-15T00:21:46;5.70;99.90
13982;DHT22;7065;50.880;5.502;2023-04-15T00:24:12;5.70;99.90
13982;DHT22;7065;50.880;5.502;2023-04-15T00:26:38;5.70;99.90
13982;DHT22;7065;50.880;5.502;2023-04-15T00:29:04;5.60;99.90
13982;DHT22;7065;50.880;5.502;2023-04-15T00:31:30;5.60;99.90
13982;DHT22;7065;50.880;5.502;2023-04-15T00:33:56;5.50;99.90
13982;DHT22;7065;50.880;5.502;2023-04-15T00:36:22;5.50;99.90
13982;DHT22;7065;50.880;5.502;2023-04-15T00:38:48;5.50;99.90
13982;DHT22;7065;50.880;5.502;2023-04-15T00:41:14;5.40;99.90
13982;DHT22;7065;50.880;5.502;2023-04-15T00:43:40;5.40;99.90
13982;DHT22;7065;50.880;5.502;2023-04-15T00:46:06;5.40;99.90
13982;DHT22;7065;50.880;5.502;2023-04-15T00:48:35;5.40;99.90
13982;DHT22;7065;50.880;5.502;2023-04-15T00:51:01;5.40;99.90
13982;DHT22;7065;50.880;5.502;2023-04-15T00:53:27;5.40;99.90
13982;DHT22;7065;50.880;5.502;2023-04-15T00:55:53;5.40;99.90
13982;DHT22;7065;50.880;5.502;2023-04-15T00:58:18;5.40;99.90
13982;DHT22;7065;50.880;5.502;2023-04-15T01:00:44;5.40;99.90
13982;DHT22;7065;50.880;5.502;2023-04-15T01:03:11;5.40;99.90
13982;DHT22;7065;50.880;5.502;2023-04-15T01:05:37;5.50;99.90
13982;DHT22;7065;50.880;5.502;2023-04-15T01:08:04;5.50;99.90
13982;DHT22;7065;50.880;5.502;2023-04-15T01:10:30;5.60;99.90
13982;DHT22;7065;50.880;5.502;2023-04-15T01:12:56;5.60;99.90
13982;DHT22;7065;50.880;5.502;2023-04-15T01:15:22;5.60;99.90
13982;DHT22;7065;50.880;5.502;2023-04-15T01:17:49;5.60;99.90
13982;DHT22;7065;50.880;5.502;2023-04-15T01:20:15;5.70;99.90
13982;DHT22;7065;50.880;5.502;2023-04-15T01:22:41;5.70;99.90
13982;DHT22;7065;50.880;5.502;2023-04-15T01:25:17;5.70;99.90
13982;DHT22;7065;50.880;5.502;2023-04-15T01:27:43;5.80;99.90
13982;DHT22;7065;50.880;5.502;2023-04-15T01:30:10;5.80;99.90
13982;DHT22;7065;50.880;5.502;2023-04-15T01:32:36;5.80;99.90
13982;DHT22;7065;50.880;5.502;2023-04-15T01:35:02;5.90;99.90
13982;DHT22;7065;50.880;5.502;2023-04-15T01:37:28;5.90;99.90
13982;DHT22;7065;50.880;5.502;2023-04-15T01:39:54;5.90;99.90
13982;DHT22;7065;50.880;5.502;2023-04-15T01:42:20;6.00;99.90
13982;DHT22;7065;50.880;5.502;2023-04-15T01:44:47;6.00;99.90
13982;DHT22;7065;50.880;5.502;2023-04-15T01:47:12;6.00;99.90
13982;DHT22;7065;50.880;5.502;2023-04-15T01:49:38;6.10;99.90
13982;DHT22;7065;50.880;5.502;2023-04-15T01:52:04;6.10;99.90
13982;DHT22;7065;50.880;5.502;2023-04-15T01:54:30;6.10;99.90
13982;DHT22;7065;50.880;5.502;2023-04-15T01:56:56;6.20;99.90
13982;DHT22;7065;50.880;5.502;2023-04-15T01:59:22;6.20;99.90
13982;DHT22;7065;50.880;5.502;2023-04-15T02:01:48;6.20;99.90
13982;DHT22;7065;50.880;5.502;2023-04-15T02:04:14;6.20;99.90
13982;DHT22;7065;50.880;5.502;2023-04-15T02:06:44;6.30;99.90
13982;DHT22;7065;50.880;5.502;2023-04-15T02:09:10;6.30;99.90
13982;DHT22;7065;50.880;5.502;2023-04-15T02:11:36;6.30;99.90
13982;DHT22;7065;50.880;5.502;2023-04-15T02:14:03;6.30;99.90
13982;DHT22;7065;50.880;5.502;2023-04-15T02:16:31;6.30;99.90
13982;DHT22;7065;50.880;5.502;2023-04-15T02:18:59;6.20;99.90
13982;DHT22;7065;50.880;5.502;2023-04-15T02:21:25;6.30;99.90
13982;DHT22;7065;50.880;5.502;2023-04-15T02:23:51;6.20;99.90
13982;DHT22;7065;50.880;5.502;2023-04-15T02:26:18;6.30;99.90
13982;DHT22;7065;50.880;5.502;2023-04-15T02:28:46;6.30;99.90
13982;DHT22;7065;50.880;5.502;2023-04-15T02:31:12;6.30;99.90
13982;DHT22;7065;50.880;5.502;2023-04-15T02:33:37;6.30;99.90
13982;DHT22;7065;50.880;5.502;2023-04-15T02:36:04;6.30;99.90
13982;DHT22;7065;50.880;5.502;2023-04-15T02:38:30;6.20;99.90
13982;DHT22;7065;50.880;5.502;2023-04-15T02:40:56;6.20;99.90
13982;DHT22;7065;50.880;5.502;2023-04-15T02:43:22;6.20;99.90
13982;DHT22;7065;50.880;5.502;2023-04-15T02:45:48;6.20;99.90
13982;DHT22;7065;50.880;5.502;2023-04-15T02:48:15;6.20;99.90
13982;DHT22;7065;50.880;5.502;2023-04-15T02:50:44;6.20;99.90
13982;DHT22;7065;50.880;5.502;2023-04-15T02:53:10;6.20;99.90
13982;DHT22;7065;50.880;5.502;2023-04-15T02:55:36;6.30;99.90
13982;DHT22;7065;50.880;5.502;2023-04-15T02:58:01;6.30;99.90
13982;DHT22;7065;50.880;5.502;2023-04-15T03:00:27;6.30;99.90
13982;DHT22;7065;50.880;5.502;2023-04-15T03:03:00;6.40;99.90
13982;DHT22;7065;50.880;5.502;2023-04-15T03:05:26;6.40;99.90
13982;DHT22;7065;50.880;5.502;2023-04-15T03:07:52;6.40;99.90
13982;DHT22;7065;50.880;5.502;2023-04-15T03:10:18;6.40;99.90
13982;DHT22;7065;50.880;5.502;2023-04-15T03:12:44;6.40;99.90
13982;DHT22;7065;50.880;5.502;2023-04-15T03:15:10;6.50;99.90
13982;DHT22;7065;50.880;5.502;2023-04-15T03:17:37;6.50;99.90
13982;DHT22;7065;50.880;5.502;2023-04-15T03:20:04;6.50;99.90
13982;DHT22;7065;50.880;5.502;2023-04-15T03:22:31;6.50;99.90
13982;DHT22;7065;50.880;5.502;2023-04-15T03:24:56;6.50;99.90
13982;DHT22;7065;50.880;5.502;2023-04-15T03:27:22;6.50;99.90
13982;DHT22;7065;50.880;5.502;2023-04-15T03:29:49;6.50;99.90
13982;DHT22;7065;50.880;5.502;2023-04-15T03:32:14;6.50;99.90
13982;DHT22;7065;50.880;5.502;2023-04-15T03:34:41;6.50;99.90
13982;DHT22;7065;50.880;5.502;2023-04-15T03:37:07;6.50;99.90
13982;DHT22;7065;50.880;5.502;2023-04-15T03:39:33;6.50;99.90
13982;DHT22;7065;50.880;5.502;2023-04-15T03:41:59;6.50;99.90
13982;DHT22;7065;50.880;5.502;2023-04-15T03:44:26;6.50;99.90
13982;DHT22;7065;50.880;5.502;2023-04-15T03:46:52;6.50;99.90
13982;DHT22;7065;50.880;5.502;2023-04-15T03:49:18;6.40;99.90
13982;DHT22;7065;50.880;5.502;2023-04-15T03:51:44;6.40;99.90
13982;DHT22;7065;50.880;5.502;2023-04-15T03:54:10;6.40;99.90
13982;DHT22;7065;50.880;5.502;2023-04-15T03:56:37;6.40;99.90
13982;DHT22;7065;50.880;5.502;2023-04-15T03:59:03;6.40;99.90
13982;DHT22;7065;50.880;5.502;2023-04-15T04:01:28;6.40;99.90
13982;DHT22;7065;50.880;5.502;2023-04-15T04:03:54;6.40;99.90
13982;DHT22;7065;50.880;5.502;2023-04-15T04:06:20;6.50;99.90
13982;DHT22;7065;50.880;5.502;2023-04-15T04:08:46;6.50;99.90
13982;DHT22;7065;50.880;5.502;2023-04-15T04:11:11;6.40;99.90
13982;DHT22;7065;50.880;5.502;2023-04-15T04:13:37;6.50;99.90
13982;DHT22;7065;50.880;5.502;2023-04-15T04:16:03;6.40;99.90
13982;DHT22;7065;50.880;5.502;2023-04-15T04:18:30;6.50;99.90
13982;DHT22;7065;50.880;5.502;2023-04-15T04:20:56;6.50;99.90
13982;DHT22;7065;50.880;5.502;2023-04-15T04:23:22;6.50;99.90
13982;DHT22;7065;50.880;5.502;2023-04-15T04:25:47;6.40;99.90
13982;DHT22;7065;50.880;5.502;2023-04-15T04:28:13;6.40;99.90
13982;DHT22;7065;50.880;5.502;2023-04-15T04:30:39;6.40;99.90
13982;DHT22;7065;50.880;5.502;2023-04-15T04:33:06;6.40;99.90
13982;DHT22;7065;50.880;5.502;2023-04-15T04:35:31;6.40;99.90
13982;DHT22;7065;50.880;5.502;2023-04-15T04:38:00;6.40;99.90
13982;DHT22;7065;50.880;5.502;2023-04-15T04:40:26;6.40;99.90
13982;DHT22;7065;50.880;5.502;2023-04-15T04:42:52;6.40;99.90
13982;DHT22;7065;50.880;5.502;2023-04-15T04:45:18;6.40;99.90
13982;DHT22;7065;50.880;5.502;2023-04-15T04:47:44;6.30;99.90
13982;DHT22;7065;50.880;5.502;2023-04-15T04:50:11;6.30;99.90
13982;DHT22;7065;50.880;5.502;2023-04-15T04:52:37;6.30;99.90
13982;DHT22;7065;50.880;5.502;2023-04-15T04:55:03;6.30;99.90
13982;DHT22;7065;50.880;5.502;2023-04-15T04:57:29;6.30;99.90
13982;DHT22;7065;50.880;5.502;2023-04-15T04:59:54;6.30;99.90
13982;DHT22;7065;50.880;5.502;2023-04-15T05:02:21;6.30;99.90
13982;DHT22;7065;50.880;5.502;2023-04-15T05:04:46;6.30;99.90
13982;DHT22;7065;50.880;5.502;2023-04-15T05:07:12;6.40;99.90
13982;DHT22;7065;50.880;5.502;2023-04-15T05:09:38;6.40;99.90
13982;DHT22;7065;50.880;5.502;2023-04-15T05:12:04;6.40;99.90
13982;DHT22;7065;50.880;5.502;2023-04-15T05:14:30;6.40;99.90
13982;DHT22;7065;50.880;5.502;2023-04-15T05:16:57;6.40;99.90
13982;DHT22;7065;50.880;5.502;2023-04-15T05:19:22;6.40;99.90
13982;DHT22;7065;50.880;5.502;2023-04-15T05:21:48;6.40;99.90
13982;DHT22;7065;50.880;5.502;2023-04-15T05:24:14;6.40;99.90
13982;DHT22;7065;50.880;5.502;2023-04-15T05:26:40;6.50;99.90
13982;DHT22;7065;50.880;5.502;2023-04-15T05:29:05;6.50;99.90
13982;DHT22;7065;50.880;5.502;2023-04-15T05:31:31;6.50;99.90
13982;DHT22;7065;50.880;5.502;2023-04-15T05:33:57;6.60;99.90
13982;DHT22;7065;50.880;5.502;2023-04-15T05:36:23;6.60;99.90
13982;DHT22;7065;50.880;5.502;2023-04-15T05:38:48;6.70;99.90
13982;DHT22;7065;50.880;5.502;2023-04-15T05:41:14;6.70;99.90
13982;DHT22;7065;50.880;5.502;2023-04-15T05:43:41;6.70;99.90
13982;DHT22;7065;50.880;5.502;2023-04-15T05:46:06;6.80;99.90
13982;DHT22;7065;50.880;5.502;2023-04-15T05:48:33;6.80;99.90
13982;DHT22;7065;50.880;5.502;2023-04-15T05:50:59;6.80;99.90
13982;DHT22;7065;50.880;5.502;2023-04-15T05:53:25;6.80;99.90
13982;DHT22;7065;50.880;5.502;2023-04-15T05:55:51;6.90;99.90
13982;DHT22;7065;50.880;5.502;2023-04-15T05:58:17;7.00;99.90
13982;DHT22;7065;50.880;5.502;2023-04-15T06:00:42;7.00;99.90
13982;DHT22;7065;50.880;5.502;2023-04-15T06:03:09;7.10;99.90
13982;DHT22;7065;50.880;5.502;2023-04-15T06:05:36;7.20;99.90
13982;DHT22;7065;50.880;5.502;2023-04-15T06:08:02;7.20;99.90
13982;DHT22;7065;50.880;5.502;2023-04-15T06:10:29;7.30;99.90
13982;DHT22;7065;50.880;5.502;2023-04-15T06:12:55;7.40;99.90
13982;DHT22;7065;50.880;5.502;2023-04-15T06:15:21;7.50;99.90
13982;DHT22;7065;50.880;5.502;2023-04-15T06:17:46;7.60;99.90
13982;DHT22;7065;50.880;5.502;2023-04-15T06:20:12;7.60;99.90
13982;DHT22;7065;50.880;5.502;2023-04-15T06:22:38;7.80;99.90
13982;DHT22;7065;50.880;5.502;2023-04-15T06:25:05;7.90;99.90
13982;DHT22;7065;50.880;5.502;2023-04-15T06:27:32;8.00;99.90
13982;DHT22;7065;50.880;5.502;2023-04-15T06:29:58;8.20;99.90
13982;DHT22;7065;50.880;5.502;2023-04-15T06:32:23;8.30;99.90
13982;DHT22;7065;50.880;5.502;2023-04-15T06:34:49;8.50;99.90
13982;DHT22;7065;50.880;5.502;2023-04-15T06:37:15;8.70;99.90
13982;DHT22;7065;50.880;5.502;2023-04-15T06:39:41;8.90;99.90
13982;DHT22;7065;50.880;5.502;2023-04-15T06:42:09;9.00;99.90
13982;DHT22;7065;50.880;5.502;2023-04-15T06:44:35;9.10;99.90
13982;DHT22;7065;50.880;5.502;2023-04-15T06:47:01;9.20;99.90
13982;DHT22;7065;50.880;5.502;2023-04-15T06:49:28;9.30;99.90
13982;DHT22;7065;50.880;5.502;2023-04-15T06:51:54;9.40;99.90
13982;DHT22;7065;50.880;5.502;2023-04-15T06:54:20;9.40;99.90
13982;DHT22;7065;50.880;5.502;2023-04-15T06:56:45;9.40;99.90
13982;DHT22;7065;50.880;5.502;2023-04-15T06:59:12;9.40;99.90
13982;DHT22;7065;50.880;5.502;2023-04-15T07:01:39;9.40;99.90
13982;DHT22;7065;50.880;5.502;2023-04-15T07:04:05;9.30;99.90
13982;DHT22;7065;50.880;5.502;2023-04-15T07:06:31;9.30;99.90
13982;DHT22;7065;50.880;5.502;2023-04-15T07:08:58;9.30;99.90
13982;DHT22;7065;50.880;5.502;2023-04-15T07:11:25;9.30;99.90
13982;DHT22;7065;50.880;5.502;2023-04-15T07:13:50;9.30;99.90
13982;DHT22;7065;50.880;5.502;2023-04-15T07:16:17;9.20;99.90
13982;DHT22;7065;50.880;5.502;2023-04-15T07:18:43;9.20;99.90
13982;DHT22;7065;50.880;5.502;2023-04-15T07:21:09;9.20;99.90
13982;DHT22;7065;50.880;5.502;2023-04-15T07:23:35;9.20;99.90
13982;DHT22;7065;50.880;5.502;2023-04-15T07:26:02;9.20;99.90
13982;DHT22;7065;50.880;5.502;2023-04-15T07:28:27;9.20;99.90
13982;DHT22;7065;50.880;5.502;2023-04-15T07:30:54;9.30;99.90
13982;DHT22;7065;50.880;5.502;2023-04-15T07:33:21;9.30;99.90
13982;DHT22;7065;50.880;5.502;2023-04-15T07:35:47;9.30;99.90
13982;DHT22;7065;50.880;5.502;2023-04-15T07:38:14;9.40;99.90
13982;DHT22;7065;50.880;5.502;2023-04-15T07:40:40;9.50;99.90
13982;DHT22;7065;50.880;5.502;2023-04-15T07:43:06;9.60;99.90
13982;DHT22;7065;50.880;5.502;2023-04-15T07:45:33;9.80;99.90
13982;DHT22;7065;50.880;5.502;2023-04-15T07:47:58;9.80;99.90
13982;DHT22;7065;50.880;5.502;2023-04-15T07:50:24;9.90;99.90
13982;DHT22;7065;50.880;5.502;2023-04-15T07:52:50;9.90;99.90
13982;DHT22;7065;50.880;5.502;2023-04-15T07:55:17;9.90;99.90
13982;DHT22;7065;50.880;5.502;2023-04-15T07:57:48;10.00;99.90
13982;DHT22;7065;50.880;5.502;2023-04-15T08:00:14;10.00;99.90
13982;DHT22;7065;50.880;5.502;2023-04-15T08:02:40;10.10;99.90
13982;DHT22;7065;50.880;5.502;2023-04-15T08:05:07;10.10;99.90
13982;DHT22;7065;50.880;5.502;2023-04-15T08:07:34;10.10;99.90
13982;DHT22;7065;50.880;5.502;2023-04-15T08:10:00;10.10;99.90
13982;DHT22;7065;50.880;5.502;2023-04-15T08:12:26;10.30;99.90
13982;DHT22;7065;50.880;5.502;2023-04-15T08:14:53;10.40;99.90
13982;DHT22;7065;50.880;5.502;2023-04-15T08:17:19;10.40;99.90
13982;DHT22;7065;50.880;5.502;2023-04-15T08:19:45;10.50;99.90
13982;DHT22;7065;50.880;5.502;2023-04-15T08:22:12;10.60;99.90
13982;DHT22;7065;50.880;5.502;2023-04-15T08:24:38;10.60;99.90
13982;DHT22;7065;50.880;5.502;2023-04-15T08:27:04;10.70;99.90
13982;DHT22;7065;50.880;5.502;2023-04-15T08:29:31;10.80;99.90
13982;DHT22;7065;50.880;5.502;2023-04-15T08:31:58;10.80;99.90
13982;DHT22;7065;50.880;5.502;2023-04-15T08:34:23;10.80;99.90
13982;DHT22;7065;50.880;5.502;2023-04-15T08:36:50;10.70;99.90
13982;DHT22;7065;50.880;5.502;2023-04-15T08:39:16;10.80;99.90
13982;DHT22;7065;50.880;5.502;2023-04-15T08:42:09;10.90;99.90
13982;DHT22;7065;50.880;5.502;2023-04-15T08:44:35;11.00;99.90
13982;DHT22;7065;50.880;5.502;2023-04-15T08:47:07;10.90;99.90
13982;DHT22;7065;50.880;5.502;2023-04-15T08:49:38;10.90;99.90
13982;DHT22;7065;50.880;5.502;2023-04-15T08:52:04;10.90;99.90
13982;DHT22;7065;50.880;5.502;2023-04-15T08:54:31;10.90;99.90
13982;DHT22;7065;50.880;5.502;2023-04-15T08:56:58;10.90;99.90
13982;DHT22;7065;50.880;5.502;2023-04-15T08:59:24;10.90;99.90
13982;DHT22;7065;50.880;5.502;2023-04-15T09:01:50;11.00;99.90
13982;DHT22;7065;50.880;5.502;2023-04-15T09:04:17;11.00;99.90
13982;DHT22;7065;50.880;5.502;2023-04-15T09:06:44;11.10;99.90
13982;DHT22;7065;50.880;5.502;2023-04-15T09:09:11;11.20;99.90
13982;DHT22;7065;50.880;5.502;2023-04-15T09:11:37;11.30;99.90
13982;DHT22;7065;50.880;5.502;2023-04-15T09:14:03;11.40;99.90
13982;DHT22;7065;50.880;5.502;2023-04-15T09:16:29;11.50;99.90
13982;DHT22;7065;50.880;5.502;2023-04-15T09:18:56;11.60;99.90
13982;DHT22;7065;50.880;5.502;2023-04-15T09:21:22;11.70;99.90
13982;DHT22;7065;50.880;5.502;2023-04-15T09:23:56;11.80;99.90
13982;DHT22;7065;50.880;5.502;2023-04-15T09:26:51;11.90;99.90
13982;DHT22;7065;50.880;5.502;2023-04-15T09:29:16;12.00;99.90
13982;DHT22;7065;50.880;5.502;2023-04-15T09:31:43;12.10;99.90
13982;DHT22;7065;50.880;5.502;2023-04-15T09:34:09;12.10;99.90
13982;DHT22;7065;50.880;5.502;2023-04-15T09:36:52;12.00;99.90
13982;DHT22;7065;50.880;5.502;2023-04-15T09:39:19;12.00;99.90
13982;DHT22;7065;50.880;5.502;2023-04-15T09:41:45;12.00;99.90
13982;DHT22;7065;50.880;5.502;2023-04-15T09:44:23;12.10;99.90
13982;DHT22;7065;50.880;5.502;2023-04-15T09:46:49;12.10;99.90
13982;DHT22;7065;50.880;5.502;2023-04-15T09:49:15;12.20;99.90
13982;DHT22;7065;50.880;5.502;2023-04-15T09:51:42;12.30;99.90
13982;DHT22;7065;50.880;5.502;2023-04-15T09:54:08;12.40;99.90
13982;DHT22;7065;50.880;5.502;2023-04-15T09:56:36;12.50;99.90
13982;DHT22;7065;50.880;5.502;2023-04-15T09:59:10;12.60;99.90
13982;DHT22;7065;50.880;5.502;2023-04-15T10:01:37;12.70;99.90
13982;DHT22;7065;50.880;5.502;2023-04-15T10:04:05;12.70;99.90
13982;DHT22;7065;50.880;5.502;2023-04-15T10:06:32;12.60;99.90
13982;DHT22;7065;50.880;5.502;2023-04-15T10:08:59;12.50;99.90
13982;DHT22;7065;50.880;5.502;2023-04-15T10:11:29;12.60;99.90
13982;DHT22;7065;50.880;5.502;2023-04-15T10:13:56;12.60;99.90
13982;DHT22;7065;50.880;5.502;2023-04-15T10:16:26;12.70;99.90
13982;DHT22;7065;50.880;5.502;2023-04-15T10:18:56;12.80;99.90
13982;DHT22;7065;50.880;5.502;2023-04-15T10:21:23;12.90;99.90
13982;DHT22;7065;50.880;5.502;2023-04-15T10:23:49;12.80;99.90
13982;DHT22;7065;50.880;5.502;2023-04-15T10:26:16;12.80;99.90
13982;DHT22;7065;50.880;5.502;2023-04-15T10:28:45;12.90;99.90
13982;DHT22;7065;50.880;5.502;2023-04-15T10:31:14;12.90;99.90
13982;DHT22;7065;50.880;5.502;2023-04-15T10:33:41;12.90;99.90
13982;DHT22;7065;50.880;5.502;2023-04-15T10:36:08;12.90;99.90
13982;DHT22;7065;50.880;5.502;2023-04-15T10:38:41;13.00;99.90
13982;DHT22;7065;50.880;5.502;2023-04-15T10:41:23;13.10;99.90
13982;DHT22;7065;50.880;5.502;2023-04-15T10:43:54;13.10;99.90
13982;DHT22;7065;50.880;5.502;2023-04-15T10:46:34;13.10;99.90
13982;DHT22;7065;50.880;5.502;2023-04-15T10:51:41;13.20;99.90
13982;DHT22;7065;50.880;5.502;2023-04-15T10:54:16;13.20;99.90
13982;DHT22;7065;50.880;5.502;2023-04-15T10:59:37;13.30;99.90
13982;DHT22;7065;50.880;5.502;2023-04-15T11:02:05;13.40;99.90
13982;DHT22;7065;50.880;5.502;2023-04-15T11:07:36;13.40;99.90
13982;DHT22;7065;50.880;5.502;2023-04-15T11:12:53;13.50;99.90
13982;DHT22;7065;50.880;5.502;2023-04-15T11:15:34;13.50;99.90
13982;DHT22;7065;50.880;5.502;2023-04-15T11:18:21;13.60;99.90
13982;DHT22;7065;50.880;5.502;2023-04-15T11:20:52;13.80;99.90
13982;DHT22;7065;50.880;5.502;2023-04-15T11:23:42;13.90;99.90
13982;DHT22;7065;50.880;5.502;2023-04-15T11:26:11;13.90;99.90
13982;DHT22;7065;50.880;5.502;2023-04-15T11:28:40;13.90;99.90
13982;DHT22;7065;50.880;5.502;2023-04-15T11:31:07;14.00;99.90
13982;DHT22;7065;50.880;5.502;2023-04-15T11:33:35;14.00;99.90
13982;DHT22;7065;50.880;5.502;2023-04-15T11:36:01;14.10;99.90
13982;DHT22;7065;50.880;5.502;2023-04-15T11:38:28;14.00;99.90
13982;DHT22;7065;50.880;5.502;2023-04-15T11:40:55;14.00;99.90
13982;DHT22;7065;50.880;5.502;2023-04-15T11:43:22;14.10;99.90
13982;DHT22;7065;50.880;5.502;2023-04-15T11:48:17;14.20;99.90
13982;DHT22;7065;50.880;5.502;2023-04-15T11:50:43;14.20;99.90
13982;DHT22;7065;50.880;5.502;2023-04-15T11:53:11;14.20;99.90
13982;DHT22;7065;50.880;5.502;2023-04-15T11:55:42;14.10;99.90
13982;DHT22;7065;50.880;5.502;2023-04-15T11:58:18;14.20;99.90
13982;DHT22;7065;50.880;5.502;2023-04-15T12:00:50;14.30;99.90
13982;DHT22;7065;50.880;5.502;2023-04-15T12:11:44;14.30;99.90
13982;DHT22;7065;50.880;5.502;2023-04-15T12:14:22;14.30;99.90
13982;DHT22;7065;50.880;5.502;2023-04-15T12:16:50;14.30;99.90
13982;DHT22;7065;50.880;5.502;2023-04-15T12:19:34;14.40;99.90
13982;DHT22;7065;50.880;5.502;2023-04-15T12:22:09;14.50;99.90
13982;DHT22;7065;50.880;5.502;2023-04-15T12:24:36;14.40;99.90
13982;DHT22;7065;50.880;5.502;2023-04-15T12:27:07;14.50;99.90
13982;DHT22;7065;50.880;5.502;2023-04-15T12:29:34;14.60;99.90
13982;DHT22;7065;50.880;5.502;2023-04-15T12:32:14;14.60;99.90
13982;DHT22;7065;50.880;5.502;2023-04-15T12:37:09;14.80;99.90
13982;DHT22;7065;50.880;5.502;2023-04-15T12:39:40;14.70;99.90
13982;DHT22;7065;50.880;5.502;2023-04-15T12:42:07;14.70;99.90
13982;DHT22;7065;50.880;5.502;2023-04-15T12:44:35;14.70;99.90
13982;DHT22;7065;50.880;5.502;2023-04-15T12:47:01;14.80;99.90
13982;DHT22;7065;50.880;5.502;2023-04-15T12:49:27;14.90;99.90
13982;DHT22;7065;50.880;5.502;2023-04-15T12:51:56;14.90;99.90
13982;DHT22;7065;50.880;5.502;2023-04-15T12:54:22;14.90;99.90
13982;DHT22;7065;50.880;5.502;2023-04-15T12:56:49;15.00;99.90
13982;DHT22;7065;50.880;5.502;2023-04-15T12:59:15;14.70;99.90
13982;DHT22;7065;50.880;5.502;2023-04-15T13:01:43;14.80;99.90
13982;DHT22;7065;50.880;5.502;2023-04-15T13:04:09;14.90;99.90
13982;DHT22;7065;50.880;5.502;2023-04-15T13:06:35;15.00;99.90
13982;DHT22;7065;50.880;5.502;2023-04-15T13:09:01;15.10;99.90
13982;DHT22;7065;50.880;5.502;2023-04-15T13:11:28;15.20;99.90
13982;DHT22;7065;50.880;5.502;2023-04-15T13:13:59;15.20;99.90
13982;DHT22;7065;50.880;5.502;2023-04-15T13:16:26;15.30;99.90
13982;DHT22;7065;50.880;5.502;2023-04-15T13:18:51;15.30;99.90
13982;DHT22;7065;50.880;5.502;2023-04-15T13:21:18;15.30;99.90
13982;DHT22;7065;50.880;5.502;2023-04-15T13:23:44;15.20;99.90
13982;DHT22;7065;50.880;5.502;2023-04-15T13:26:09;15.20;99.90
13982;DHT22;7065;50.880;5.502;2023-04-15T13:28:35;15.30;99.90
13982;DHT22;7065;50.880;5.502;2023-04-15T13:31:01;15.30;99.90
13982;DHT22;7065;50.880;5.502;2023-04-15T13:33:27;15.30;99.90
13982;DHT22;7065;50.880;5.502;2023-04-15T13:35:53;15.30;99.90
13982;DHT22;7065;50.880;5.502;2023-04-15T13:38:19;15.40;99.90
13982;DHT22;7065;50.880;5.502;2023-04-15T13:40:45;15.50;99.90
13982;DHT22;7065;50.880;5.502;2023-04-15T13:43:10;15.40;99.90
13982;DHT22;7065;50.880;5.502;2023-04-15T13:45:36;15.50;99.90
13982;DHT22;7065;50.880;5.502;2023-04-15T13:48:02;15.40;99.90
13982;DHT22;7065;50.880;5.502;2023-04-15T13:50:28;15.30;99.90
13982;DHT22;7065;50.880;5.502;2023-04-15T13:52:54;15.30;99.90
13982;DHT22;7065;50.880;5.502;2023-04-15T13:55:19;15.20;99.90
13982;DHT22;7065;50.880;5.502;2023-04-15T13:57:46;15.30;99.90
13982;DHT22;7065;50.880;5.502;2023-04-15T14:00:12;15.50;99.90
13982;DHT22;7065;50.880;5.502;2023-04-15T14:02:39;15.60;99.90
13982;DHT22;7065;50.880;5.502;2023-04-15T14:05:05;15.70;99.90
13982;DHT22;7065;50.880;5.502;2023-04-15T14:07:30;15.90;99.90
13982;DHT22;7065;50.880;5.502;2023-04-15T14:09:57;15.90;99.90
13982;DHT22;7065;50.880;5.502;2023-04-15T14:12:23;15.90;99.90
13982;DHT22;7065;50.880;5.502;2023-04-15T14:14:48;15.60;99.90
13982;DHT22;7065;50.880;5.502;2023-04-15T14:17:14;15.60;99.90
13982;DHT22;7065;50.880;5.502;2023-04-15T14:19:40;15.70;99.90
13982;DHT22;7065;50.880;5.502;2023-04-15T14:22:06;15.80;99.90
13982;DHT22;7065;50.880;5.502;2023-04-15T14:24:31;15.90;99.90
13982;DHT22;7065;50.880;5.502;2023-04-15T14:26:57;15.90;99.90
13982;DHT22;7065;50.880;5.502;2023-04-15T14:29:23;15.80;99.90
13982;DHT22;7065;50.880;5.502;2023-04-15T14:31:49;15.90;99.90
13982;DHT22;7065;50.880;5.502;2023-04-15T14:34:16;15.90;99.90
13982;DHT22;7065;50.880;5.502;2023-04-15T14:36:42;15.80;99.90
13982;DHT22;7065;50.880;5.502;2023-04-15T14:39:09;15.80;99.90
13982;DHT22;7065;50.880;5.502;2023-04-15T14:41:35;15.70;99.90
13982;DHT22;7065;50.880;5.502;2023-04-15T14:44:02;15.60;99.90
13982;DHT22;7065;50.880;5.502;2023-04-15T14:46:28;15.60;99.90
13982;DHT22;7065;50.880;5.502;2023-04-15T14:48:53;15.60;99.90
13982;DHT22;7065;50.880;5.502;2023-04-15T14:51:19;15.70;99.90
13982;DHT22;7065;50.880;5.502;2023-04-15T14:53:45;15.70;99.90
13982;DHT22;7065;50.880;5.502;2023-04-15T14:56:11;15.80;99.90
13982;DHT22;7065;50.880;5.502;2023-04-15T14:58:36;15.80;99.90
13982;DHT22;7065;50.880;5.502;2023-04-15T15:01:03;15.50;99.90
13982;DHT22;7065;50.880;5.502;2023-04-15T15:03:29;15.50;99.90
13982;DHT22;7065;50.880;5.502;2023-04-15T15:05:55;15.70;99.90
13982;DHT22;7065;50.880;5.502;2023-04-15T15:08:22;15.80;99.90
13982;DHT22;7065;50.880;5.502;2023-04-15T15:10:48;15.70;99.90
13982;DHT22;7065;50.880;5.502;2023-04-15T15:13:13;15.80;99.90
13982;DHT22;7065;50.880;5.502;2023-04-15T15:15:40;15.80;99.90
13982;DHT22;7065;50.880;5.502;2023-04-15T15:18:06;16.00;99.90
13982;DHT22;7065;50.880;5.502;2023-04-15T15:20:32;16.10;99.90
13982;DHT22;7065;50.880;5.502;2023-04-15T15:22:59;16.20;99.90
13982;DHT22;7065;50.880;5.502;2023-04-15T15:25:24;16.20;99.90
13982;DHT22;7065;50.880;5.502;2023-04-15T15:27:50;16.20;99.90
13982;DHT22;7065;50.880;5.502;2023-04-15T15:30:17;16.10;99.90
13982;DHT22;7065;50.880;5.502;2023-04-15T15:32:43;16.20;99.90
13982;DHT22;7065;50.880;5.502;2023-04-15T15:35:09;16.10;99.90
13982;DHT22;7065;50.880;5.502;2023-04-15T15:37:35;16.00;99.90
13982;DHT22;7065;50.880;5.502;2023-04-15T15:40:03;16.00;99.90
13982;DHT22;7065;50.880;5.502;2023-04-15T15:42:32;15.80;99.90
13982;DHT22;7065;50.880;5.502;2023-04-15T15:44:59;15.60;99.90
13982;DHT22;7065;50.880;5.502;2023-04-15T15:47:25;15.40;99.90
13982;DHT22;7065;50.880;5.502;2023-04-15T15:49:54;15.20;99.90
13982;DHT22;7065;50.880;5.502;2023-04-15T15:52:20;15.20;99.90
13982;DHT22;7065;50.880;5.502;2023-04-15T15:54:45;15.30;99.90
13982;DHT22;7065;50.880;5.502;2023-04-15T15:57:12;15.30;99.90
13982;DHT22;7065;50.880;5.502;2023-04-15T15:59:37;15.40;99.90
13982;DHT22;7065;50.880;5.502;2023-04-15T16:02:11;15.40;99.90
13982;DHT22;7065;50.880;5.502;2023-04-15T16:04:38;15.40;99.90
13982;DHT22;7065;50.880;5.502;2023-04-15T16:07:04;16.00;99.90
13982;DHT22;7065;50.880;5.502;2023-04-15T16:09:30;16.10;99.90
13982;DHT22;7065;50.880;5.502;2023-04-15T16:11:56;16.40;99.90
13982;DHT22;7065;50.880;5.502;2023-04-15T16:14:23;16.30;99.90
13982;DHT22;7065;50.880;5.502;2023-04-15T16:16:50;16.10;99.90
13982;DHT22;7065;50.880;5.502;2023-04-15T16:19:15;16.50;99.90